EXS67E LTBS-EGBB
Flight info
| Callsign | EXS67E |
|---|---|
| Flight time | 4h 4m |
| Altitude | 34000 |
| Route | ERFES N618 YOYYO UN128 RIKSO DCT GIKAS DCT TSL UN130 TALAS DCT PEP DCT ENFAR DCT AKIKA DCT MONID DCT ADOMO DCT GIMIX DCT ERKIR DCT BABEG/N0441F360 DCT LIRSU DCT ARCKY DCT BUB DCT DENUT L610 HEMEL |
| Aircraft | B738/M-SDE2E3FGHIRWXY/LB1 |
Departure
| Time | 2026-04-25 15:43 |
|---|---|
| Airport | Dalaman International Airport (LTBS) |
Arrival
| Time | 2026-04-25 19:47 |
|---|---|
| Airport | Birmingham Airport (EGBB) |
| Time | Latitude | Longitude | Altitude | Speed | Heading |
|---|---|---|---|---|---|
| 2026-04-25 14:53 | 36.72149 | 28.79021 | 11 ft | 0 kts | 285° |
| 2026-04-25 15:35 | 36.72145 | 28.79036 | 11 ft | 4 kts | 285° |
| 2026-04-25 15:35 | 36.72140 | 28.79062 | 14 ft | 4 kts | 288° |
| 2026-04-25 15:35 | 36.72128 | 28.79087 | 12 ft | 4 kts | 340° |
| 2026-04-25 15:36 | 36.72094 | 28.79082 | 14 ft | 0 kts | 15° |
| 2026-04-25 15:39 | 36.72122 | 28.79092 | 14 ft | 7 kts | 15° |
| 2026-04-25 15:39 | 36.72173 | 28.79110 | 11 ft | 7 kts | 15° |
| 2026-04-25 15:39 | 36.72222 | 28.79127 | 11 ft | 7 kts | 15° |
| 2026-04-25 15:39 | 36.72281 | 28.79147 | 11 ft | 11 kts | 15° |
| 2026-04-25 15:40 | 36.72371 | 28.79178 | 11 ft | 16 kts | 15° |
| 2026-04-25 15:40 | 36.72410 | 28.79192 | 11 ft | 18 kts | 16° |
| 2026-04-25 15:40 | 36.72636 | 28.79269 | 11 ft | 20 kts | 16° |
| 2026-04-25 15:40 | 36.72680 | 28.79385 | 11 ft | 17 kts | 104° |
| 2026-04-25 15:41 | 36.72649 | 28.79524 | 11 ft | 16 kts | 105° |
| 2026-04-25 15:41 | 36.72625 | 28.79634 | 11 ft | 6 kts | 105° |
| 2026-04-25 15:41 | 36.72607 | 28.79676 | 11 ft | 6 kts | 149° |
| 2026-04-25 15:41 | 36.72566 | 28.79677 | 11 ft | 7 kts | 194° |
| 2026-04-25 15:42 | 36.72403 | 28.79621 | 11 ft | 55 kts | 195° |
| 2026-04-25 15:42 | 36.71815 | 28.79421 | 11 ft | 118 kts | 195° |
| 2026-04-25 15:42 | 36.70853 | 28.79096 | 13 ft | 170 kts | 195° |
| 2026-04-25 15:42 | 36.69617 | 28.78679 | 536 ft | 181 kts | 195° |
| 2026-04-25 15:43 | 36.68443 | 28.78276 | 1467 ft | 179 kts | 197° |
| 2026-04-25 15:43 | 36.67145 | 28.77827 | 1884 ft | 212 kts | 197° |
| 2026-04-25 15:43 | 36.65645 | 28.77314 | 2192 ft | 231 kts | 195° |
| 2026-04-25 15:43 | 36.64077 | 28.76693 | 2671 ft | 241 kts | 209° |
| 2026-04-25 15:44 | 36.62861 | 28.75235 | 3111 ft | 257 kts | 243° |
| 2026-04-25 15:44 | 36.62543 | 28.73025 | 3530 ft | 268 kts | 281° |
| 2026-04-25 15:44 | 36.63017 | 28.70758 | 4218 ft | 273 kts | 287° |
| 2026-04-25 15:44 | 36.63571 | 28.68470 | 4914 ft | 279 kts | 287° |
| 2026-04-25 15:45 | 36.64126 | 28.66135 | 5682 ft | 281 kts | 285° |
| 2026-04-25 15:45 | 36.64659 | 28.63804 | 6415 ft | 285 kts | 283° |
| 2026-04-25 15:45 | 36.65204 | 28.61415 | 7130 ft | 289 kts | 287° |
| 2026-04-25 15:45 | 36.65463 | 28.60623 | 7371 ft | 291 kts | 297° |
| 2026-04-25 15:46 | 36.67854 | 28.57647 | 8612 ft | 296 kts | 321° |
| 2026-04-25 15:46 | 36.69490 | 28.56054 | 9317 ft | 300 kts | 320° |
| 2026-04-25 15:46 | 36.71142 | 28.54432 | 10008 ft | 304 kts | 320° |
| 2026-04-25 15:46 | 36.72824 | 28.52767 | 10393 ft | 319 kts | 320° |
| 2026-04-25 15:47 | 36.74007 | 28.51590 | 10500 ft | 334 kts | 320° |
| 2026-04-25 15:47 | 36.75874 | 28.49728 | 10699 ft | 353 kts | 320° |
| 2026-04-25 15:47 | 36.77826 | 28.47778 | 11164 ft | 363 kts | 320° |
| 2026-04-25 15:47 | 36.80474 | 28.45191 | 12076 ft | 366 kts | 321° |
| 2026-04-25 15:48 | 36.82500 | 28.43247 | 12775 ft | 368 kts | 322° |
| 2026-04-25 15:48 | 36.83878 | 28.41929 | 13235 ft | 371 kts | 322° |
| 2026-04-25 15:48 | 36.85939 | 28.39957 | 13872 ft | 375 kts | 322° |
| 2026-04-25 15:48 | 36.88014 | 28.37968 | 14459 ft | 378 kts | 322° |
| 2026-04-25 15:49 | 36.90111 | 28.35954 | 15037 ft | 382 kts | 322° |
| 2026-04-25 15:49 | 36.92203 | 28.33941 | 15611 ft | 387 kts | 322° |
| 2026-04-25 15:49 | 36.94346 | 28.31876 | 16215 ft | 389 kts | 322° |
| 2026-04-25 15:49 | 36.96498 | 28.29799 | 16835 ft | 392 kts | 322° |
| 2026-04-25 15:50 | 36.98663 | 28.27709 | 17413 ft | 395 kts | 323° |
| 2026-04-25 15:50 | 37.00848 | 28.25597 | 17950 ft | 399 kts | 323° |
| 2026-04-25 15:50 | 37.03058 | 28.23458 | 18492 ft | 402 kts | 323° |
| 2026-04-25 15:50 | 37.05276 | 28.21310 | 18992 ft | 405 kts | 323° |
| 2026-04-25 15:51 | 37.07518 | 28.19136 | 19491 ft | 408 kts | 322° |
| 2026-04-25 15:51 | 37.09007 | 28.17693 | 19810 ft | 410 kts | 322° |
| 2026-04-25 15:51 | 37.12033 | 28.14756 | 20470 ft | 413 kts | 322° |
| 2026-04-25 15:51 | 37.14313 | 28.12541 | 20945 ft | 416 kts | 322° |
| 2026-04-25 15:52 | 37.16615 | 28.10302 | 21381 ft | 420 kts | 322° |
| 2026-04-25 15:52 | 37.18901 | 28.08078 | 21847 ft | 423 kts | 322° |
| 2026-04-25 15:52 | 37.21232 | 28.05807 | 22315 ft | 425 kts | 323° |
| 2026-04-25 15:52 | 37.23578 | 28.03521 | 22772 ft | 428 kts | 323° |
| 2026-04-25 15:53 | 37.25932 | 28.01224 | 23194 ft | 431 kts | 323° |
| 2026-04-25 15:53 | 37.28308 | 27.98906 | 23585 ft | 434 kts | 323° |
| 2026-04-25 15:53 | 37.30701 | 27.96568 | 23936 ft | 437 kts | 323° |
| 2026-04-25 15:53 | 37.33103 | 27.94220 | 24312 ft | 438 kts | 323° |
| 2026-04-25 15:54 | 37.35516 | 27.91859 | 24685 ft | 440 kts | 323° |
| 2026-04-25 15:54 | 37.37938 | 27.89486 | 25026 ft | 443 kts | 323° |
| 2026-04-25 15:54 | 37.40375 | 27.87097 | 25373 ft | 445 kts | 323° |
| 2026-04-25 15:54 | 37.42822 | 27.84697 | 25730 ft | 447 kts | 323° |
| 2026-04-25 15:55 | 37.45279 | 27.82284 | 26075 ft | 449 kts | 323° |
| 2026-04-25 15:55 | 37.47747 | 27.79859 | 26405 ft | 451 kts | 323° |
| 2026-04-25 15:55 | 37.50226 | 27.77420 | 26787 ft | 452 kts | 323° |
| 2026-04-25 15:55 | 37.52704 | 27.74980 | 27121 ft | 454 kts | 323° |
| 2026-04-25 15:56 | 37.55199 | 27.72522 | 27410 ft | 456 kts | 323° |
| 2026-04-25 15:56 | 37.57711 | 27.70045 | 27707 ft | 459 kts | 323° |
| 2026-04-25 15:56 | 37.60194 | 27.67594 | 28012 ft | 461 kts | 323° |
| 2026-04-25 15:56 | 37.62725 | 27.65093 | 28316 ft | 462 kts | 323° |
| 2026-04-25 15:57 | 37.65260 | 27.62587 | 28603 ft | 464 kts | 323° |
| 2026-04-25 15:57 | 37.67807 | 27.60066 | 28894 ft | 466 kts | 323° |
| 2026-04-25 15:57 | 37.70367 | 27.57530 | 29174 ft | 468 kts | 323° |
| 2026-04-25 15:57 | 37.72936 | 27.54983 | 29455 ft | 470 kts | 323° |
| 2026-04-25 15:58 | 37.75515 | 27.52424 | 29718 ft | 472 kts | 323° |
| 2026-04-25 15:58 | 37.78096 | 27.49860 | 30087 ft | 470 kts | 323° |
| 2026-04-25 15:58 | 37.80662 | 27.47307 | 30528 ft | 466 kts | 323° |
| 2026-04-25 15:58 | 37.83202 | 27.44779 | 30915 ft | 464 kts | 323° |
| 2026-04-25 15:59 | 37.85737 | 27.42254 | 31203 ft | 464 kts | 323° |
| 2026-04-25 15:59 | 37.88272 | 27.39727 | 31444 ft | 465 kts | 323° |
| 2026-04-25 15:59 | 37.90809 | 27.37195 | 31715 ft | 464 kts | 322° |
| 2026-04-25 15:59 | 37.93345 | 27.34663 | 32031 ft | 463 kts | 322° |
| 2026-04-25 16:00 | 37.95872 | 27.32137 | 32338 ft | 462 kts | 322° |
| 2026-04-25 16:00 | 37.96690 | 27.31319 | 32427 ft | 462 kts | 322° |
| 2026-04-25 16:00 | 38.00922 | 27.27082 | 32853 ft | 462 kts | 322° |
| 2026-04-25 16:00 | 38.03409 | 27.24590 | 33133 ft | 461 kts | 322° |
| 2026-04-25 16:01 | 38.05927 | 27.22063 | 33438 ft | 460 kts | 322° |
| 2026-04-25 16:01 | 38.08430 | 27.19550 | 33779 ft | 457 kts | 322° |
| 2026-04-25 16:01 | 38.10925 | 27.17043 | 34061 ft | 457 kts | 322° |
| 2026-04-25 16:01 | 38.13417 | 27.14536 | 34285 ft | 456 kts | 322° |
| 2026-04-25 16:02 | 38.15896 | 27.12040 | 34538 ft | 454 kts | 322° |
| 2026-04-25 16:02 | 38.18368 | 27.09549 | 34774 ft | 453 kts | 322° |
| 2026-04-25 16:02 | 38.20837 | 27.07058 | 34977 ft | 453 kts | 322° |
| 2026-04-25 16:02 | 38.23305 | 27.04567 | 35196 ft | 452 kts | 321° |
| 2026-04-25 16:03 | 38.25762 | 27.02085 | 35404 ft | 451 kts | 321° |
| 2026-04-25 16:03 | 38.28220 | 26.99598 | 35599 ft | 451 kts | 321° |
| 2026-04-25 16:03 | 38.30678 | 26.97111 | 35751 ft | 451 kts | 321° |
| 2026-04-25 16:03 | 38.33131 | 26.94625 | 35946 ft | 449 kts | 321° |
| 2026-04-25 16:04 | 38.37977 | 26.89709 | 35953 ft | 447 kts | 321° |
| 2026-04-25 16:04 | 38.42856 | 26.84751 | 35967 ft | 449 kts | 322° |
| 2026-04-25 16:05 | 38.47753 | 26.79766 | 35972 ft | 450 kts | 322° |
| 2026-04-25 16:06 | 38.55119 | 26.72249 | 35971 ft | 452 kts | 322° |
| 2026-04-25 16:06 | 38.60032 | 26.67224 | 35967 ft | 452 kts | 321° |
| 2026-04-25 16:07 | 38.64945 | 26.62190 | 35967 ft | 452 kts | 322° |
| 2026-04-25 16:07 | 38.69849 | 26.57157 | 35973 ft | 451 kts | 322° |
| 2026-04-25 16:08 | 38.74708 | 26.52159 | 35971 ft | 450 kts | 323° |
| 2026-04-25 16:08 | 38.79585 | 26.47136 | 35981 ft | 449 kts | 323° |
| 2026-04-25 16:09 | 38.83936 | 26.41394 | 35984 ft | 452 kts | 306° |
| 2026-04-25 16:09 | 38.86938 | 26.34296 | 35985 ft | 453 kts | 297° |
| 2026-04-25 16:10 | 38.89678 | 26.27016 | 35979 ft | 453 kts | 297° |
| 2026-04-25 16:10 | 38.92432 | 26.19754 | 35965 ft | 452 kts | 298° |
| 2026-04-25 16:11 | 38.95212 | 26.12505 | 35978 ft | 452 kts | 298° |
| 2026-04-25 16:11 | 38.97999 | 26.05258 | 35978 ft | 452 kts | 298° |
| 2026-04-25 16:12 | 39.00769 | 25.98042 | 35984 ft | 453 kts | 298° |
| 2026-04-25 16:12 | 39.03557 | 25.90758 | 35986 ft | 453 kts | 298° |
| 2026-04-25 16:13 | 39.06335 | 25.83480 | 35986 ft | 453 kts | 298° |
| 2026-04-25 16:13 | 39.09115 | 25.76182 | 35992 ft | 454 kts | 298° |
| 2026-04-25 16:14 | 39.11889 | 25.68880 | 35989 ft | 454 kts | 298° |
| 2026-04-25 16:14 | 39.14640 | 25.61618 | 35987 ft | 454 kts | 298° |
| 2026-04-25 16:15 | 39.17406 | 25.54303 | 35992 ft | 454 kts | 298° |
| 2026-04-25 16:15 | 39.20168 | 25.46980 | 35997 ft | 454 kts | 298° |
| 2026-04-25 16:16 | 39.22927 | 25.39645 | 35996 ft | 454 kts | 298° |
| 2026-04-25 16:16 | 39.25675 | 25.32323 | 35995 ft | 453 kts | 298° |
| 2026-04-25 16:17 | 39.28414 | 25.25004 | 36003 ft | 453 kts | 298° |
| 2026-04-25 16:17 | 39.31149 | 25.17681 | 36002 ft | 452 kts | 298° |
| 2026-04-25 16:18 | 39.33874 | 25.10366 | 36003 ft | 452 kts | 298° |
| 2026-04-25 16:18 | 39.36577 | 25.03094 | 36006 ft | 451 kts | 298° |
| 2026-04-25 16:19 | 39.39286 | 24.95784 | 36008 ft | 451 kts | 298° |
| 2026-04-25 16:19 | 39.41990 | 24.88472 | 36006 ft | 450 kts | 298° |
| 2026-04-25 16:20 | 39.46036 | 24.77494 | 36008 ft | 450 kts | 298° |
| 2026-04-25 16:21 | 39.50099 | 24.66617 | 36004 ft | 447 kts | 303° |
| 2026-04-25 16:21 | 39.53705 | 24.60123 | 36013 ft | 443 kts | 310° |
| 2026-04-25 16:22 | 39.57484 | 24.53802 | 36016 ft | 443 kts | 310° |
| 2026-04-25 16:22 | 39.61240 | 24.47456 | 36015 ft | 444 kts | 310° |
| 2026-04-25 16:23 | 39.64975 | 24.41067 | 36013 ft | 444 kts | 310° |
| 2026-04-25 16:23 | 39.68672 | 24.34704 | 36008 ft | 444 kts | 310° |
| 2026-04-25 16:24 | 39.72394 | 24.28282 | 36018 ft | 445 kts | 310° |
| 2026-04-25 16:24 | 39.76121 | 24.21839 | 36016 ft | 445 kts | 310° |
| 2026-04-25 16:25 | 39.79845 | 24.15390 | 36016 ft | 446 kts | 310° |
| 2026-04-25 16:25 | 39.83570 | 24.08925 | 36010 ft | 447 kts | 310° |
| 2026-04-25 16:26 | 39.87296 | 24.02446 | 36015 ft | 447 kts | 310° |
| 2026-04-25 16:26 | 39.91002 | 23.95989 | 36018 ft | 448 kts | 310° |
| 2026-04-25 16:27 | 39.94732 | 23.89477 | 36016 ft | 448 kts | 310° |
| 2026-04-25 16:27 | 39.98463 | 23.82949 | 36017 ft | 449 kts | 310° |
| 2026-04-25 16:28 | 40.02194 | 23.76407 | 36013 ft | 449 kts | 310° |
| 2026-04-25 16:28 | 40.05916 | 23.69867 | 36008 ft | 449 kts | 310° |
| 2026-04-25 16:29 | 40.09642 | 23.63308 | 36015 ft | 449 kts | 310° |
| 2026-04-25 16:29 | 40.13335 | 23.56793 | 36014 ft | 449 kts | 310° |
| 2026-04-25 16:30 | 40.17049 | 23.50226 | 36013 ft | 448 kts | 310° |
| 2026-04-25 16:30 | 40.20757 | 23.43657 | 36012 ft | 448 kts | 310° |
| 2026-04-25 16:31 | 40.24448 | 23.37105 | 36015 ft | 447 kts | 310° |
| 2026-04-25 16:31 | 40.28131 | 23.30551 | 36011 ft | 446 kts | 310° |
| 2026-04-25 16:32 | 40.31800 | 23.24009 | 36008 ft | 445 kts | 310° |
| 2026-04-25 16:32 | 40.35459 | 23.17473 | 36002 ft | 444 kts | 310° |
| 2026-04-25 16:33 | 40.39092 | 23.10968 | 36000 ft | 444 kts | 310° |
| 2026-04-25 16:33 | 40.42736 | 23.04431 | 35994 ft | 443 kts | 310° |
| 2026-04-25 16:34 | 40.46374 | 22.97906 | 35991 ft | 442 kts | 310° |
| 2026-04-25 16:34 | 40.49473 | 22.92568 | 36006 ft | 442 kts | 311° |
| 2026-04-25 16:35 | 40.53243 | 22.86177 | 35987 ft | 442 kts | 311° |
| 2026-04-25 16:35 | 40.57000 | 22.79770 | 35997 ft | 442 kts | 311° |
| 2026-04-25 16:36 | 40.60747 | 22.73336 | 35998 ft | 443 kts | 311° |
| 2026-04-25 16:36 | 40.64491 | 22.66890 | 35983 ft | 443 kts | 311° |
| 2026-04-25 16:37 | 40.68231 | 22.60434 | 35995 ft | 443 kts | 311° |
| 2026-04-25 16:37 | 40.71955 | 22.53994 | 35999 ft | 444 kts | 311° |
| 2026-04-25 16:38 | 40.75696 | 22.47515 | 35988 ft | 444 kts | 311° |
| 2026-04-25 16:38 | 40.79437 | 22.41028 | 35990 ft | 444 kts | 311° |
| 2026-04-25 16:39 | 40.83183 | 22.34538 | 35995 ft | 444 kts | 311° |
| 2026-04-25 16:39 | 40.86919 | 22.28052 | 36000 ft | 443 kts | 311° |
| 2026-04-25 16:40 | 40.90649 | 22.21561 | 35993 ft | 443 kts | 311° |
| 2026-04-25 16:40 | 40.94369 | 22.15070 | 36009 ft | 442 kts | 311° |
| 2026-04-25 16:41 | 40.98081 | 22.08583 | 36000 ft | 442 kts | 310° |
| 2026-04-25 16:41 | 41.03606 | 21.98898 | 36010 ft | 441 kts | 310° |
| 2026-04-25 16:42 | 41.07297 | 21.92414 | 36005 ft | 441 kts | 310° |
| 2026-04-25 16:42 | 41.10974 | 21.85894 | 36006 ft | 441 kts | 310° |
| 2026-04-25 16:43 | 41.14625 | 21.79367 | 35982 ft | 440 kts | 310° |
| 2026-04-25 16:43 | 41.18270 | 21.72839 | 35993 ft | 440 kts | 310° |
| 2026-04-25 16:44 | 41.21911 | 21.66310 | 35998 ft | 439 kts | 310° |
| 2026-04-25 16:44 | 41.25543 | 21.59787 | 36000 ft | 439 kts | 309° |
| 2026-04-25 16:45 | 41.29173 | 21.53252 | 36001 ft | 439 kts | 309° |
| 2026-04-25 16:45 | 41.32797 | 21.46717 | 36000 ft | 438 kts | 309° |
| 2026-04-25 16:46 | 41.36251 | 21.40028 | 35997 ft | 439 kts | 306° |
| 2026-04-25 16:46 | 41.38951 | 21.34294 | 35998 ft | 440 kts | 305° |
| 2026-04-25 16:47 | 41.42709 | 21.26255 | 36005 ft | 439 kts | 305° |
| 2026-04-25 16:47 | 41.45967 | 21.19352 | 36001 ft | 440 kts | 305° |
| 2026-04-25 16:48 | 41.49221 | 21.12480 | 35981 ft | 440 kts | 305° |
| 2026-04-25 16:48 | 41.52481 | 21.05584 | 35988 ft | 439 kts | 305° |
| 2026-04-25 16:49 | 41.55732 | 20.98690 | 36001 ft | 438 kts | 305° |
| 2026-04-25 16:49 | 41.58975 | 20.91796 | 36003 ft | 438 kts | 305° |
| 2026-04-25 16:50 | 41.62219 | 20.84885 | 36007 ft | 438 kts | 305° |
| 2026-04-25 16:50 | 41.65461 | 20.77960 | 35995 ft | 438 kts | 304° |
| 2026-04-25 16:51 | 41.68673 | 20.71086 | 36018 ft | 438 kts | 304° |
| 2026-04-25 16:51 | 41.71374 | 20.65292 | 36019 ft | 438 kts | 304° |
| 2026-04-25 16:52 | 41.75123 | 20.57234 | 36010 ft | 438 kts | 304° |
| 2026-04-25 16:52 | 41.78858 | 20.50859 | 36013 ft | 433 kts | 320° |
| 2026-04-25 16:53 | 41.85630 | 20.42857 | 36017 ft | 431 kts | 320° |
| 2026-04-25 16:54 | 41.90130 | 20.37527 | 36022 ft | 431 kts | 320° |
| 2026-04-25 16:54 | 41.94606 | 20.32162 | 36011 ft | 431 kts | 320° |
| 2026-04-25 16:55 | 41.99041 | 20.26816 | 36017 ft | 430 kts | 320° |
| 2026-04-25 16:55 | 42.03490 | 20.21438 | 36016 ft | 430 kts | 320° |
| 2026-04-25 16:56 | 42.07942 | 20.16047 | 36013 ft | 430 kts | 320° |
| 2026-04-25 16:56 | 42.12386 | 20.10658 | 35995 ft | 429 kts | 319° |
| 2026-04-25 16:57 | 42.16821 | 20.05268 | 35997 ft | 429 kts | 319° |
| 2026-04-25 16:57 | 42.21255 | 19.99870 | 36006 ft | 429 kts | 319° |
| 2026-04-25 16:58 | 42.25658 | 19.94497 | 36003 ft | 429 kts | 319° |
| 2026-04-25 16:58 | 42.30091 | 19.89078 | 36011 ft | 430 kts | 319° |
| 2026-04-25 16:59 | 42.34520 | 19.83653 | 35996 ft | 430 kts | 319° |
| 2026-04-25 16:59 | 42.38960 | 19.78203 | 35990 ft | 430 kts | 319° |
| 2026-04-25 17:00 | 42.43389 | 19.72756 | 35993 ft | 430 kts | 319° |
| 2026-04-25 17:00 | 42.47813 | 19.67303 | 36006 ft | 430 kts | 319° |
| 2026-04-25 17:01 | 42.52240 | 19.61839 | 35999 ft | 430 kts | 319° |
| 2026-04-25 17:01 | 42.56639 | 19.56323 | 35985 ft | 430 kts | 317° |
| 2026-04-25 17:02 | 42.60956 | 19.50780 | 35968 ft | 430 kts | 317° |
| 2026-04-25 17:02 | 42.65290 | 19.45197 | 35982 ft | 429 kts | 317° |
| 2026-04-25 17:03 | 42.69627 | 19.39613 | 35993 ft | 428 kts | 317° |
| 2026-04-25 17:03 | 42.73952 | 19.34041 | 35973 ft | 428 kts | 317° |
| 2026-04-25 17:04 | 42.78264 | 19.28476 | 35999 ft | 427 kts | 317° |
| 2026-04-25 17:04 | 42.82543 | 19.22945 | 35998 ft | 426 kts | 317° |
| 2026-04-25 17:05 | 42.86837 | 19.17383 | 35998 ft | 426 kts | 316° |
| 2026-04-25 17:05 | 42.93272 | 19.09024 | 35983 ft | 426 kts | 316° |
| 2026-04-25 17:06 | 42.97557 | 19.03445 | 35987 ft | 425 kts | 316° |
| 2026-04-25 17:06 | 43.01844 | 18.97851 | 36004 ft | 425 kts | 316° |
| 2026-04-25 17:07 | 43.06120 | 18.92261 | 35977 ft | 425 kts | 316° |
| 2026-04-25 17:07 | 43.10384 | 18.86674 | 35985 ft | 425 kts | 316° |
| 2026-04-25 17:08 | 43.14619 | 18.81114 | 35999 ft | 425 kts | 316° |
| 2026-04-25 17:08 | 43.18884 | 18.75505 | 35991 ft | 424 kts | 316° |
| 2026-04-25 17:09 | 43.23140 | 18.69895 | 36000 ft | 424 kts | 316° |
| 2026-04-25 17:09 | 43.27390 | 18.64281 | 36008 ft | 424 kts | 316° |
| 2026-04-25 17:10 | 43.31646 | 18.58649 | 35981 ft | 424 kts | 315° |
| 2026-04-25 17:10 | 43.35862 | 18.53058 | 36003 ft | 424 kts | 315° |
| 2026-04-25 17:11 | 43.40108 | 18.47415 | 36010 ft | 424 kts | 315° |
| 2026-04-25 17:11 | 43.44346 | 18.41772 | 36010 ft | 424 kts | 315° |
| 2026-04-25 17:12 | 43.48585 | 18.36116 | 36008 ft | 424 kts | 315° |
| 2026-04-25 17:12 | 43.52824 | 18.30447 | 36013 ft | 424 kts | 315° |
| 2026-04-25 17:13 | 43.55626 | 18.26694 | 36005 ft | 424 kts | 315° |
| 2026-04-25 17:13 | 43.61255 | 18.19139 | 36002 ft | 423 kts | 315° |
| 2026-04-25 17:14 | 43.65470 | 18.13468 | 36011 ft | 423 kts | 315° |
| 2026-04-25 17:14 | 43.69684 | 18.07787 | 35988 ft | 423 kts | 315° |
| 2026-04-25 17:15 | 43.73885 | 18.02111 | 36007 ft | 422 kts | 315° |
| 2026-04-25 17:15 | 43.78081 | 17.96431 | 36018 ft | 421 kts | 314° |
| 2026-04-25 17:16 | 43.82268 | 17.90751 | 36011 ft | 421 kts | 314° |
| 2026-04-25 17:16 | 43.86447 | 17.85069 | 35980 ft | 420 kts | 314° |
| 2026-04-25 17:17 | 43.90582 | 17.79437 | 36008 ft | 419 kts | 314° |
| 2026-04-25 17:17 | 43.94747 | 17.73750 | 35989 ft | 419 kts | 314° |
| 2026-04-25 17:18 | 43.98907 | 17.68060 | 36010 ft | 420 kts | 314° |
| 2026-04-25 17:18 | 44.03072 | 17.62350 | 36007 ft | 421 kts | 314° |
| 2026-04-25 17:19 | 44.07237 | 17.56629 | 36011 ft | 422 kts | 313° |
| 2026-04-25 17:19 | 44.11387 | 17.50916 | 36015 ft | 422 kts | 313° |
| 2026-04-25 17:20 | 44.15553 | 17.45170 | 36003 ft | 421 kts | 313° |
| 2026-04-25 17:20 | 44.19715 | 17.39418 | 35997 ft | 421 kts | 313° |
| 2026-04-25 17:21 | 44.23865 | 17.33668 | 36010 ft | 420 kts | 313° |
| 2026-04-25 17:21 | 44.28011 | 17.27913 | 36009 ft | 420 kts | 313° |
| 2026-04-25 17:22 | 44.30779 | 17.24064 | 36007 ft | 420 kts | 313° |
| 2026-04-25 17:22 | 44.35584 | 17.17369 | 36012 ft | 419 kts | 313° |
| 2026-04-25 17:23 | 44.39707 | 17.11612 | 36004 ft | 418 kts | 313° |
| 2026-04-25 17:23 | 44.43823 | 17.05853 | 35993 ft | 417 kts | 313° |
| 2026-04-25 17:24 | 44.47922 | 17.00104 | 35993 ft | 416 kts | 313° |
| 2026-04-25 17:24 | 44.52007 | 16.94363 | 36007 ft | 416 kts | 312° |
| 2026-04-25 17:25 | 44.56087 | 16.88616 | 35995 ft | 415 kts | 312° |
| 2026-04-25 17:25 | 44.60138 | 16.82900 | 35982 ft | 416 kts | 312° |
| 2026-04-25 17:26 | 44.64208 | 16.77144 | 35983 ft | 415 kts | 312° |
| 2026-04-25 17:26 | 44.68280 | 16.71373 | 35989 ft | 415 kts | 312° |
| 2026-04-25 17:27 | 44.72343 | 16.65602 | 35980 ft | 415 kts | 312° |
| 2026-04-25 17:27 | 44.75719 | 16.60798 | 35998 ft | 415 kts | 312° |
| 2026-04-25 17:28 | 44.80467 | 16.54026 | 35975 ft | 415 kts | 312° |
| 2026-04-25 17:28 | 44.84498 | 16.48265 | 35975 ft | 415 kts | 311° |
| 2026-04-25 17:29 | 44.88550 | 16.42460 | 35980 ft | 415 kts | 311° |
| 2026-04-25 17:29 | 44.92594 | 16.36655 | 35977 ft | 415 kts | 311° |
| 2026-04-25 17:30 | 44.96636 | 16.30840 | 35980 ft | 414 kts | 311° |
| 2026-04-25 17:30 | 45.00509 | 16.24807 | 35990 ft | 413 kts | 308° |
| 2026-04-25 17:31 | 45.04276 | 16.18653 | 35980 ft | 414 kts | 308° |
| 2026-04-25 17:31 | 45.08048 | 16.12491 | 35972 ft | 414 kts | 308° |
| 2026-04-25 17:32 | 45.11831 | 16.06340 | 35968 ft | 414 kts | 308° |
| 2026-04-25 17:32 | 45.15586 | 16.00240 | 35970 ft | 413 kts | 308° |
| 2026-04-25 17:33 | 45.19365 | 15.94093 | 35963 ft | 413 kts | 308° |
| 2026-04-25 17:33 | 45.23137 | 15.87942 | 35969 ft | 412 kts | 308° |
| 2026-04-25 17:34 | 45.26895 | 15.81801 | 35981 ft | 412 kts | 308° |
| 2026-04-25 17:34 | 45.30629 | 15.75685 | 35965 ft | 412 kts | 308° |
| 2026-04-25 17:35 | 45.34380 | 15.69527 | 35958 ft | 412 kts | 308° |
| 2026-04-25 17:35 | 45.38128 | 15.63362 | 35958 ft | 412 kts | 307° |
| 2026-04-25 17:36 | 45.41873 | 15.57186 | 35955 ft | 412 kts | 307° |
| 2026-04-25 17:36 | 45.45614 | 15.51004 | 35958 ft | 412 kts | 307° |
| 2026-04-25 17:37 | 45.49346 | 15.44824 | 35960 ft | 412 kts | 307° |
| 2026-04-25 17:37 | 45.53088 | 15.38614 | 35971 ft | 412 kts | 307° |
| 2026-04-25 17:38 | 45.56197 | 15.33444 | 35958 ft | 412 kts | 307° |
| 2026-04-25 17:38 | 45.60557 | 15.26176 | 35962 ft | 413 kts | 307° |
| 2026-04-25 17:39 | 45.64264 | 15.19982 | 35961 ft | 412 kts | 307° |
| 2026-04-25 17:39 | 45.67991 | 15.13741 | 35970 ft | 412 kts | 307° |
| 2026-04-25 17:40 | 45.71710 | 15.07500 | 35975 ft | 411 kts | 307° |
| 2026-04-25 17:40 | 45.75416 | 15.01265 | 35960 ft | 410 kts | 307° |
| 2026-04-25 17:41 | 45.79100 | 14.95055 | 35978 ft | 409 kts | 307° |
| 2026-04-25 17:41 | 45.82789 | 14.88821 | 35979 ft | 410 kts | 307° |
| 2026-04-25 17:42 | 45.86477 | 14.82573 | 35980 ft | 411 kts | 307° |
| 2026-04-25 17:42 | 45.90170 | 14.76304 | 35982 ft | 412 kts | 307° |
| 2026-04-25 17:43 | 45.93876 | 14.70000 | 35976 ft | 413 kts | 307° |
| 2026-04-25 17:43 | 45.97585 | 14.63682 | 35982 ft | 414 kts | 307° |
| 2026-04-25 17:44 | 46.01345 | 14.57409 | 35976 ft | 414 kts | 307° |
| 2026-04-25 17:44 | 46.05122 | 14.51151 | 35987 ft | 414 kts | 307° |
| 2026-04-25 17:45 | 46.07617 | 14.47003 | 35975 ft | 414 kts | 307° |
| 2026-04-25 17:45 | 46.12634 | 14.38626 | 35959 ft | 413 kts | 307° |
| 2026-04-25 17:46 | 46.16377 | 14.32354 | 35974 ft | 412 kts | 307° |
| 2026-04-25 17:46 | 46.20110 | 14.26081 | 35980 ft | 412 kts | 307° |
| 2026-04-25 17:47 | 46.23837 | 14.19806 | 35977 ft | 412 kts | 307° |
| 2026-04-25 17:47 | 46.27542 | 14.13553 | 35988 ft | 412 kts | 307° |
| 2026-04-25 17:48 | 46.33133 | 14.04092 | 36004 ft | 413 kts | 307° |
| 2026-04-25 17:49 | 46.36858 | 13.97769 | 35997 ft | 412 kts | 307° |
| 2026-04-25 17:49 | 46.40581 | 13.91435 | 35992 ft | 412 kts | 307° |
| 2026-04-25 17:50 | 46.44289 | 13.85114 | 36001 ft | 411 kts | 307° |
| 2026-04-25 17:50 | 46.47995 | 13.78779 | 36010 ft | 413 kts | 307° |
| 2026-04-25 17:51 | 46.51714 | 13.72409 | 36001 ft | 414 kts | 307° |
| 2026-04-25 17:51 | 46.55512 | 13.66073 | 36004 ft | 417 kts | 308° |
| 2026-04-25 17:52 | 46.59366 | 13.59821 | 36002 ft | 418 kts | 308° |
| 2026-04-25 17:52 | 46.63252 | 13.53501 | 36008 ft | 419 kts | 308° |
| 2026-04-25 17:53 | 46.67134 | 13.47147 | 36007 ft | 420 kts | 308° |
| 2026-04-25 17:53 | 46.71009 | 13.40778 | 36016 ft | 420 kts | 308° |
| 2026-04-25 17:54 | 46.74894 | 13.34374 | 36014 ft | 420 kts | 308° |
| 2026-04-25 17:54 | 46.78743 | 13.28014 | 36009 ft | 420 kts | 308° |
| 2026-04-25 17:55 | 46.82606 | 13.21614 | 36019 ft | 421 kts | 308° |
| 2026-04-25 17:55 | 46.86474 | 13.15192 | 36022 ft | 421 kts | 308° |
| 2026-04-25 17:56 | 46.90335 | 13.08768 | 36040 ft | 420 kts | 309° |
| 2026-04-25 17:56 | 46.94198 | 13.02324 | 36029 ft | 421 kts | 308° |
| 2026-04-25 17:57 | 46.98051 | 12.95882 | 36039 ft | 420 kts | 308° |
| 2026-04-25 17:57 | 47.01906 | 12.89420 | 36050 ft | 422 kts | 308° |
| 2026-04-25 17:58 | 47.05748 | 12.82965 | 36048 ft | 423 kts | 308° |
| 2026-04-25 17:58 | 47.09623 | 12.76437 | 36071 ft | 423 kts | 310° |
| 2026-04-25 17:59 | 47.13491 | 12.69908 | 36065 ft | 424 kts | 310° |
| 2026-04-25 17:59 | 47.17361 | 12.63361 | 36067 ft | 424 kts | 310° |
| 2026-04-25 18:00 | 47.21220 | 12.56813 | 36053 ft | 423 kts | 310° |
| 2026-04-25 18:00 | 47.25072 | 12.50263 | 36077 ft | 422 kts | 310° |
| 2026-04-25 18:01 | 47.28881 | 12.43770 | 36064 ft | 422 kts | 311° |
| 2026-04-25 18:01 | 47.32719 | 12.37212 | 36070 ft | 421 kts | 311° |
| 2026-04-25 18:02 | 47.36540 | 12.30667 | 36073 ft | 421 kts | 311° |
| 2026-04-25 18:02 | 47.40360 | 12.24108 | 36071 ft | 420 kts | 311° |
| 2026-04-25 18:03 | 47.44141 | 12.17600 | 36064 ft | 420 kts | 311° |
| 2026-04-25 18:03 | 47.47938 | 12.11048 | 36059 ft | 419 kts | 311° |
| 2026-04-25 18:04 | 47.51737 | 12.04479 | 36053 ft | 419 kts | 311° |
| 2026-04-25 18:04 | 47.55454 | 11.97819 | 36062 ft | 419 kts | 308° |
| 2026-04-25 18:05 | 47.58939 | 11.90892 | 36057 ft | 419 kts | 307° |
| 2026-04-25 18:05 | 47.62368 | 11.83955 | 36066 ft | 419 kts | 307° |
| 2026-04-25 18:06 | 47.65830 | 11.76989 | 36058 ft | 419 kts | 307° |
| 2026-04-25 18:06 | 47.69299 | 11.70035 | 36051 ft | 419 kts | 307° |
| 2026-04-25 18:07 | 47.72765 | 11.63081 | 36053 ft | 419 kts | 307° |
| 2026-04-25 18:07 | 47.76230 | 11.56115 | 36051 ft | 419 kts | 307° |
| 2026-04-25 18:08 | 47.79687 | 11.49146 | 36060 ft | 419 kts | 307° |
| 2026-04-25 18:08 | 47.82557 | 11.43349 | 36063 ft | 418 kts | 307° |
| 2026-04-25 18:09 | 47.86001 | 11.36373 | 36066 ft | 417 kts | 307° |
| 2026-04-25 18:09 | 47.89432 | 11.29406 | 36083 ft | 416 kts | 307° |
| 2026-04-25 18:10 | 47.92846 | 11.22456 | 36075 ft | 415 kts | 307° |
| 2026-04-25 18:10 | 47.96232 | 11.15546 | 36079 ft | 414 kts | 307° |
| 2026-04-25 18:11 | 47.99646 | 11.08560 | 36062 ft | 413 kts | 307° |
| 2026-04-25 18:11 | 48.03002 | 11.01675 | 36076 ft | 412 kts | 307° |
| 2026-04-25 18:12 | 48.06370 | 10.94749 | 36080 ft | 411 kts | 307° |
| 2026-04-25 18:12 | 48.09730 | 10.87822 | 36075 ft | 411 kts | 307° |
| 2026-04-25 18:13 | 48.13082 | 10.80892 | 36078 ft | 411 kts | 307° |
| 2026-04-25 18:13 | 48.16443 | 10.73928 | 36086 ft | 412 kts | 306° |
| 2026-04-25 18:14 | 48.21449 | 10.63521 | 36083 ft | 412 kts | 306° |
| 2026-04-25 18:14 | 48.24798 | 10.56536 | 36086 ft | 413 kts | 306° |
| 2026-04-25 18:15 | 48.28151 | 10.49525 | 36095 ft | 413 kts | 306° |
| 2026-04-25 18:15 | 48.31496 | 10.42512 | 36102 ft | 413 kts | 306° |
| 2026-04-25 18:16 | 48.34846 | 10.35471 | 36097 ft | 414 kts | 306° |
| 2026-04-25 18:17 | 48.39862 | 10.24893 | 36099 ft | 414 kts | 306° |
| 2026-04-25 18:17 | 48.43197 | 10.17837 | 36103 ft | 414 kts | 306° |
| 2026-04-25 18:18 | 48.46528 | 10.10771 | 36101 ft | 414 kts | 306° |
| 2026-04-25 18:18 | 48.49853 | 10.03699 | 36103 ft | 414 kts | 306° |
| 2026-04-25 18:19 | 48.53159 | 9.96650 | 36099 ft | 413 kts | 306° |
| 2026-04-25 18:19 | 48.56605 | 9.89719 | 36079 ft | 413 kts | 317° |
| 2026-04-25 18:20 | 48.61312 | 9.84772 | 36107 ft | 413 kts | 328° |
| 2026-04-25 18:20 | 48.66283 | 9.80341 | 36104 ft | 414 kts | 328° |
| 2026-04-25 18:21 | 48.70946 | 9.75293 | 36105 ft | 412 kts | 314° |
| 2026-04-25 18:21 | 48.74455 | 9.68458 | 36112 ft | 412 kts | 305° |
| 2026-04-25 18:22 | 48.77693 | 9.61332 | 36088 ft | 412 kts | 305° |
| 2026-04-25 18:22 | 48.80955 | 9.54177 | 36096 ft | 412 kts | 305° |
| 2026-04-25 18:23 | 48.84228 | 9.47025 | 36093 ft | 412 kts | 305° |
| 2026-04-25 18:23 | 48.87506 | 9.39866 | 36095 ft | 412 kts | 305° |
| 2026-04-25 18:24 | 48.90784 | 9.32691 | 36101 ft | 412 kts | 305° |
| 2026-04-25 18:24 | 48.94052 | 9.25520 | 36111 ft | 412 kts | 305° |
| 2026-04-25 18:25 | 48.97300 | 9.18371 | 36091 ft | 412 kts | 305° |
| 2026-04-25 18:25 | 49.00554 | 9.11192 | 36095 ft | 412 kts | 304° |
| 2026-04-25 18:26 | 49.03799 | 9.04014 | 36095 ft | 411 kts | 304° |
| 2026-04-25 18:26 | 49.07030 | 8.96845 | 36097 ft | 411 kts | 304° |
| 2026-04-25 18:27 | 49.10273 | 8.89633 | 36098 ft | 410 kts | 304° |
| 2026-04-25 18:27 | 49.13494 | 8.82448 | 36086 ft | 410 kts | 304° |
| 2026-04-25 18:28 | 49.16706 | 8.75265 | 36101 ft | 409 kts | 304° |
| 2026-04-25 18:28 | 49.19895 | 8.68116 | 36112 ft | 409 kts | 304° |
| 2026-04-25 18:29 | 49.24699 | 8.57306 | 36100 ft | 409 kts | 304° |
| 2026-04-25 18:30 | 49.30917 | 8.42723 | 36106 ft | 409 kts | 301° |
| 2026-04-25 18:30 | 49.33854 | 8.35261 | 36104 ft | 409 kts | 301° |
| 2026-04-25 18:31 | 49.36799 | 8.27798 | 36106 ft | 409 kts | 301° |
| 2026-04-25 18:31 | 49.39754 | 8.20347 | 36109 ft | 409 kts | 302° |
| 2026-04-25 18:32 | 49.42721 | 8.12869 | 36108 ft | 409 kts | 302° |
| 2026-04-25 18:32 | 49.45679 | 8.05399 | 36096 ft | 409 kts | 301° |
| 2026-04-25 18:33 | 49.48612 | 7.97974 | 36112 ft | 409 kts | 301° |
| 2026-04-25 18:33 | 49.51560 | 7.90487 | 36103 ft | 409 kts | 301° |
| 2026-04-25 18:34 | 49.54507 | 7.82982 | 36105 ft | 409 kts | 301° |
| 2026-04-25 18:34 | 49.57450 | 7.75467 | 36105 ft | 409 kts | 301° |
| 2026-04-25 18:35 | 49.60382 | 7.67957 | 36105 ft | 409 kts | 301° |
| 2026-04-25 18:35 | 49.63316 | 7.60419 | 36104 ft | 409 kts | 301° |
| 2026-04-25 18:36 | 49.66238 | 7.52892 | 36113 ft | 409 kts | 301° |
| 2026-04-25 18:36 | 49.69138 | 7.45401 | 36132 ft | 409 kts | 301° |
| 2026-04-25 18:37 | 49.72047 | 7.37863 | 36135 ft | 409 kts | 301° |
| 2026-04-25 18:37 | 49.74956 | 7.30305 | 36147 ft | 409 kts | 300° |
| 2026-04-25 18:38 | 49.77863 | 7.22730 | 36130 ft | 409 kts | 300° |
| 2026-04-25 18:38 | 49.80759 | 7.15162 | 36139 ft | 408 kts | 300° |
| 2026-04-25 18:39 | 49.83648 | 7.07589 | 36132 ft | 408 kts | 300° |
| 2026-04-25 18:39 | 49.86527 | 7.00020 | 36141 ft | 408 kts | 300° |
| 2026-04-25 18:40 | 49.89405 | 6.92432 | 36136 ft | 408 kts | 300° |
| 2026-04-25 18:40 | 49.92278 | 6.84836 | 36132 ft | 408 kts | 300° |
| 2026-04-25 18:41 | 49.95144 | 6.77237 | 36124 ft | 408 kts | 299° |
| 2026-04-25 18:41 | 49.98004 | 6.69632 | 36128 ft | 408 kts | 299° |
| 2026-04-25 18:42 | 49.99895 | 6.64590 | 36130 ft | 408 kts | 299° |
| 2026-04-25 18:42 | 50.03701 | 6.54412 | 36137 ft | 409 kts | 299° |
| 2026-04-25 18:43 | 50.06560 | 6.46742 | 36127 ft | 410 kts | 299° |
| 2026-04-25 18:43 | 50.09416 | 6.39056 | 36135 ft | 410 kts | 299° |
| 2026-04-25 18:44 | 50.12269 | 6.31355 | 36146 ft | 410 kts | 299° |
| 2026-04-25 18:44 | 50.15123 | 6.23631 | 36166 ft | 411 kts | 298° |
| 2026-04-25 18:45 | 50.17959 | 6.15930 | 36161 ft | 412 kts | 298° |
| 2026-04-25 18:45 | 50.20810 | 6.08164 | 36161 ft | 412 kts | 298° |
| 2026-04-25 18:46 | 50.23661 | 6.00378 | 36176 ft | 413 kts | 298° |
| 2026-04-25 18:46 | 50.26507 | 5.92581 | 36169 ft | 413 kts | 298° |
| 2026-04-25 18:47 | 50.29354 | 5.84755 | 36194 ft | 414 kts | 298° |
| 2026-04-25 18:47 | 50.32199 | 5.76913 | 36190 ft | 414 kts | 298° |
| 2026-04-25 18:48 | 50.35037 | 5.69067 | 36192 ft | 415 kts | 298° |
| 2026-04-25 18:48 | 50.37857 | 5.61244 | 36198 ft | 415 kts | 298° |
| 2026-04-25 18:49 | 50.40690 | 5.53364 | 36194 ft | 415 kts | 298° |
| 2026-04-25 18:49 | 50.43518 | 5.45474 | 36197 ft | 415 kts | 297° |
| 2026-04-25 18:50 | 50.46340 | 5.37575 | 36200 ft | 415 kts | 297° |
| 2026-04-25 18:50 | 50.49159 | 5.29660 | 36199 ft | 415 kts | 297° |
| 2026-04-25 18:51 | 50.51022 | 5.24415 | 36200 ft | 415 kts | 297° |
| 2026-04-25 18:51 | 50.54784 | 5.13790 | 36206 ft | 416 kts | 297° |
| 2026-04-25 18:52 | 50.57572 | 5.05888 | 36199 ft | 416 kts | 297° |
| 2026-04-25 18:52 | 50.60381 | 4.97905 | 36203 ft | 417 kts | 297° |
| 2026-04-25 18:53 | 50.63188 | 4.89899 | 36198 ft | 417 kts | 297° |
| 2026-04-25 18:53 | 50.65991 | 4.81878 | 36197 ft | 418 kts | 297° |
| 2026-04-25 18:54 | 50.69723 | 4.71164 | 36202 ft | 419 kts | 297° |
| 2026-04-25 18:55 | 50.72976 | 4.61785 | 36202 ft | 420 kts | 297° |
| 2026-04-25 18:55 | 50.75321 | 4.55002 | 36212 ft | 420 kts | 297° |
| 2026-04-25 18:56 | 50.78115 | 4.46900 | 36210 ft | 420 kts | 297° |
| 2026-04-25 18:56 | 50.80912 | 4.38761 | 36215 ft | 421 kts | 297° |
| 2026-04-25 18:57 | 50.83688 | 4.30656 | 36215 ft | 421 kts | 297° |
| 2026-04-25 18:57 | 50.86482 | 4.22474 | 36210 ft | 421 kts | 297° |
| 2026-04-25 18:58 | 50.89264 | 4.14300 | 36208 ft | 422 kts | 297° |
| 2026-04-25 18:58 | 50.93425 | 4.02025 | 36212 ft | 422 kts | 296° |
| 2026-04-25 18:59 | 50.98936 | 3.85673 | 36214 ft | 421 kts | 296° |
| 2026-04-25 19:00 | 51.03061 | 3.73363 | 36213 ft | 420 kts | 296° |
| 2026-04-25 19:01 | 51.07159 | 3.61075 | 36212 ft | 420 kts | 296° |
| 2026-04-25 19:01 | 51.09889 | 3.52853 | 36216 ft | 420 kts | 296° |
| 2026-04-25 19:02 | 51.13971 | 3.40510 | 36222 ft | 420 kts | 296° |
| 2026-04-25 19:03 | 51.17588 | 3.29524 | 36229 ft | 420 kts | 296° |
| 2026-04-25 19:03 | 51.20742 | 3.19903 | 36231 ft | 421 kts | 296° |
| 2026-04-25 19:04 | 51.24800 | 3.07467 | 36236 ft | 421 kts | 296° |
| 2026-04-25 19:05 | 51.30201 | 2.90821 | 36248 ft | 422 kts | 296° |
| 2026-04-25 19:06 | 51.32877 | 2.82536 | 36222 ft | 422 kts | 296° |
| 2026-04-25 19:06 | 51.36075 | 2.69496 | 36225 ft | 421 kts | 281° |
| 2026-04-25 19:07 | 51.37684 | 2.55659 | 36225 ft | 422 kts | 281° |
| 2026-04-25 19:08 | 51.39340 | 2.41817 | 36223 ft | 422 kts | 281° |
| 2026-04-25 19:09 | 51.41368 | 2.24910 | 36225 ft | 422 kts | 281° |
| 2026-04-25 19:10 | 51.43251 | 2.09498 | 36230 ft | 422 kts | 281° |
| 2026-04-25 19:10 | 51.44364 | 2.00315 | 36228 ft | 422 kts | 281° |
| 2026-04-25 19:11 | 51.45467 | 1.91068 | 36230 ft | 422 kts | 281° |
| 2026-04-25 19:11 | 51.46550 | 1.81826 | 36232 ft | 421 kts | 281° |
| 2026-04-25 19:12 | 51.47605 | 1.72586 | 36231 ft | 421 kts | 281° |
| 2026-04-25 19:12 | 51.48658 | 1.63341 | 36231 ft | 421 kts | 281° |
| 2026-04-25 19:13 | 51.49705 | 1.54100 | 36230 ft | 421 kts | 280° |
| 2026-04-25 19:13 | 51.50746 | 1.44857 | 36234 ft | 421 kts | 280° |
| 2026-04-25 19:14 | 51.51781 | 1.35606 | 36234 ft | 421 kts | 280° |
| 2026-04-25 19:14 | 51.52801 | 1.26415 | 36231 ft | 421 kts | 280° |
| 2026-04-25 19:15 | 51.53825 | 1.17131 | 36230 ft | 421 kts | 280° |
| 2026-04-25 19:15 | 51.54821 | 1.08040 | 36217 ft | 407 kts | 280° |
| 2026-04-25 19:15 | 51.55305 | 1.03613 | 36057 ft | 399 kts | 280° |
| 2026-04-25 19:16 | 51.55789 | 0.99172 | 35345 ft | 403 kts | 280° |
| 2026-04-25 19:16 | 51.56269 | 0.94747 | 34907 ft | 402 kts | 280° |
| 2026-04-25 19:16 | 51.56744 | 0.90332 | 34554 ft | 398 kts | 280° |
| 2026-04-25 19:16 | 51.57211 | 0.85963 | 34171 ft | 396 kts | 280° |
| 2026-04-25 19:17 | 51.57674 | 0.81620 | 33742 ft | 393 kts | 279° |
| 2026-04-25 19:17 | 51.58132 | 0.77305 | 33345 ft | 390 kts | 279° |
| 2026-04-25 19:17 | 51.58587 | 0.73017 | 32966 ft | 387 kts | 279° |
| 2026-04-25 19:17 | 51.59036 | 0.68774 | 32599 ft | 383 kts | 279° |
| 2026-04-25 19:18 | 51.59473 | 0.64615 | 32245 ft | 380 kts | 279° |
| 2026-04-25 19:18 | 51.59934 | 0.60438 | 31892 ft | 377 kts | 281° |
| 2026-04-25 19:18 | 51.60430 | 0.56298 | 31539 ft | 374 kts | 281° |
| 2026-04-25 19:18 | 51.60877 | 0.52183 | 31190 ft | 372 kts | 279° |
| 2026-04-25 19:19 | 51.61291 | 0.48099 | 30839 ft | 369 kts | 279° |
| 2026-04-25 19:19 | 51.61697 | 0.44025 | 30503 ft | 366 kts | 280° |
| 2026-04-25 19:19 | 51.62101 | 0.39992 | 30234 ft | 361 kts | 280° |
| 2026-04-25 19:20 | 51.62884 | 0.32227 | 30194 ft | 340 kts | 280° |
| 2026-04-25 19:20 | 51.63258 | 0.28533 | 30186 ft | 329 kts | 280° |
| 2026-04-25 19:20 | 51.63619 | 0.24967 | 30191 ft | 317 kts | 280° |
| 2026-04-25 19:21 | 51.64330 | 0.17909 | 30225 ft | 330 kts | 281° |
| 2026-04-25 19:21 | 51.65794 | 0.10716 | 30222 ft | 346 kts | 295° |
| 2026-04-25 19:21 | 51.66798 | 0.07210 | 30207 ft | 344 kts | 295° |
| 2026-04-25 19:22 | 51.68801 | 0.00257 | 30200 ft | 340 kts | 295° |
| 2026-04-25 19:23 | 51.71726 | -0.10068 | 30249 ft | 334 kts | 295° |
| 2026-04-25 19:23 | 51.74574 | -0.20228 | 30261 ft | 329 kts | 295° |
| 2026-04-25 19:24 | 51.76452 | -0.26960 | 30210 ft | 327 kts | 295° |
| 2026-04-25 19:24 | 51.78319 | -0.33667 | 28900 ft | 339 kts | 294° |
| 2026-04-25 19:25 | 51.80408 | -0.40620 | 27673 ft | 345 kts | 307° |
| 2026-04-25 19:25 | 51.82070 | -0.43382 | 27320 ft | 344 kts | 322° |
| 2026-04-25 19:25 | 51.84079 | -0.45477 | 26956 ft | 343 kts | 327° |
| 2026-04-25 19:26 | 51.86137 | -0.47423 | 26569 ft | 342 kts | 328° |
| 2026-04-25 19:26 | 51.88197 | -0.49363 | 26198 ft | 340 kts | 328° |
| 2026-04-25 19:26 | 51.90228 | -0.51314 | 25858 ft | 338 kts | 327° |
| 2026-04-25 19:26 | 51.92238 | -0.53273 | 25514 ft | 336 kts | 327° |
| 2026-04-25 19:27 | 51.94236 | -0.55232 | 25170 ft | 335 kts | 327° |
| 2026-04-25 19:27 | 51.94881 | -0.55864 | 25068 ft | 334 kts | 327° |
| 2026-04-25 19:27 | 51.98202 | -0.59112 | 24506 ft | 332 kts | 327° |
| 2026-04-25 19:27 | 52.00173 | -0.61040 | 24174 ft | 330 kts | 327° |
| 2026-04-25 19:28 | 52.02136 | -0.62960 | 23862 ft | 329 kts | 327° |
| 2026-04-25 19:28 | 52.04089 | -0.64874 | 23472 ft | 327 kts | 327° |
| 2026-04-25 19:28 | 52.06031 | -0.66780 | 23100 ft | 326 kts | 327° |
| 2026-04-25 19:28 | 52.07972 | -0.68686 | 22720 ft | 325 kts | 327° |
| 2026-04-25 19:29 | 52.09900 | -0.70582 | 22354 ft | 323 kts | 327° |
| 2026-04-25 19:29 | 52.11807 | -0.72459 | 22221 ft | 315 kts | 327° |
| 2026-04-25 19:29 | 52.13624 | -0.74248 | 22195 ft | 304 kts | 327° |
| 2026-04-25 19:29 | 52.15398 | -0.75997 | 22183 ft | 292 kts | 327° |
| 2026-04-25 19:30 | 52.17102 | -0.77679 | 22181 ft | 279 kts | 327° |
| 2026-04-25 19:30 | 52.18728 | -0.79285 | 22191 ft | 269 kts | 327° |
| 2026-04-25 19:30 | 52.20309 | -0.80849 | 22198 ft | 265 kts | 327° |
| 2026-04-25 19:30 | 52.21899 | -0.82425 | 22161 ft | 269 kts | 327° |
| 2026-04-25 19:31 | 52.23496 | -0.84037 | 21842 ft | 271 kts | 321° |
| 2026-04-25 19:31 | 52.24729 | -0.86341 | 21294 ft | 276 kts | 297° |
| 2026-04-25 19:31 | 52.25410 | -0.89401 | 20242 ft | 301 kts | 284° |
| 2026-04-25 19:31 | 52.25888 | -0.92839 | 19546 ft | 315 kts | 282° |
| 2026-04-25 19:32 | 52.26338 | -0.96343 | 19214 ft | 314 kts | 282° |
| 2026-04-25 19:32 | 52.26785 | -0.99809 | 18965 ft | 311 kts | 282° |
| 2026-04-25 19:32 | 52.27235 | -1.03243 | 18697 ft | 308 kts | 282° |
| 2026-04-25 19:32 | 52.27382 | -1.04356 | 18595 ft | 307 kts | 282° |
| 2026-04-25 19:33 | 52.28134 | -1.09972 | 17715 ft | 304 kts | 282° |
| 2026-04-25 19:33 | 52.28590 | -1.13345 | 17150 ft | 304 kts | 282° |
| 2026-04-25 19:33 | 52.29045 | -1.16709 | 16648 ft | 301 kts | 282° |
| 2026-04-25 19:33 | 52.29498 | -1.20053 | 16005 ft | 303 kts | 283° |
| 2026-04-25 19:34 | 52.29958 | -1.23456 | 15310 ft | 308 kts | 283° |
| 2026-04-25 19:34 | 52.30419 | -1.26866 | 14784 ft | 307 kts | 283° |
| 2026-04-25 19:34 | 52.30877 | -1.30268 | 14298 ft | 304 kts | 283° |
| 2026-04-25 19:34 | 52.31329 | -1.33638 | 13779 ft | 302 kts | 283° |
| 2026-04-25 19:35 | 52.31772 | -1.36946 | 13236 ft | 300 kts | 283° |
| 2026-04-25 19:35 | 52.32216 | -1.40269 | 12716 ft | 297 kts | 283° |
| 2026-04-25 19:35 | 52.32649 | -1.43560 | 12184 ft | 296 kts | 282° |
| 2026-04-25 19:35 | 52.33078 | -1.46847 | 11633 ft | 295 kts | 282° |
| 2026-04-25 19:36 | 52.33504 | -1.50127 | 11172 ft | 295 kts | 282° |
| 2026-04-25 19:36 | 52.33925 | -1.53349 | 11069 ft | 282 kts | 282° |
| 2026-04-25 19:36 | 52.34332 | -1.56443 | 10786 ft | 276 kts | 282° |
| 2026-04-25 19:36 | 52.34731 | -1.59469 | 10397 ft | 275 kts | 282° |
| 2026-04-25 19:37 | 52.35133 | -1.62526 | 9988 ft | 274 kts | 282° |
| 2026-04-25 19:37 | 52.35534 | -1.65574 | 9577 ft | 273 kts | 282° |
| 2026-04-25 19:37 | 52.35931 | -1.68596 | 9203 ft | 270 kts | 282° |
| 2026-04-25 19:37 | 52.36321 | -1.71576 | 9097 ft | 267 kts | 282° |
| 2026-04-25 19:38 | 52.36711 | -1.74560 | 8888 ft | 270 kts | 282° |
| 2026-04-25 19:38 | 52.37105 | -1.77573 | 8681 ft | 272 kts | 282° |
| 2026-04-25 19:38 | 52.37500 | -1.80603 | 8463 ft | 271 kts | 282° |
| 2026-04-25 19:38 | 52.37958 | -1.83578 | 8268 ft | 268 kts | 294° |
| 2026-04-25 19:39 | 52.39049 | -1.85996 | 8229 ft | 264 kts | 320° |
| 2026-04-25 19:39 | 52.40505 | -1.87811 | 8227 ft | 264 kts | 324° |
| 2026-04-25 19:39 | 52.41998 | -1.89534 | 8212 ft | 260 kts | 325° |
| 2026-04-25 19:39 | 52.43475 | -1.91223 | 8125 ft | 260 kts | 325° |
| 2026-04-25 19:40 | 52.44971 | -1.92927 | 7768 ft | 261 kts | 325° |
| 2026-04-25 19:40 | 52.46451 | -1.94611 | 7444 ft | 258 kts | 325° |
| 2026-04-25 19:40 | 52.47421 | -1.95718 | 7232 ft | 256 kts | 325° |
| 2026-04-25 19:40 | 52.48875 | -1.97378 | 6917 ft | 253 kts | 325° |
| 2026-04-25 19:41 | 52.50313 | -1.99026 | 6538 ft | 251 kts | 325° |
| 2026-04-25 19:41 | 52.51748 | -2.00675 | 6116 ft | 252 kts | 325° |
| 2026-04-25 19:41 | 52.53187 | -2.02328 | 5685 ft | 253 kts | 325° |
| 2026-04-25 19:41 | 52.54141 | -2.03423 | 5405 ft | 253 kts | 325° |
| 2026-04-25 19:42 | 52.56258 | -2.04972 | 4799 ft | 252 kts | 356° |
| 2026-04-25 19:42 | 52.57963 | -2.04497 | 4376 ft | 249 kts | 27° |
| 2026-04-25 19:42 | 52.59236 | -2.02737 | 4208 ft | 232 kts | 52° |
| 2026-04-25 19:42 | 52.59961 | -2.00487 | 3966 ft | 219 kts | 80° |
| 2026-04-25 19:43 | 52.59998 | -1.98083 | 3803 ft | 203 kts | 98° |
| 2026-04-25 19:43 | 52.59685 | -1.95861 | 3634 ft | 195 kts | 105° |
| 2026-04-25 19:43 | 52.59340 | -1.93743 | 3487 ft | 189 kts | 105° |
| 2026-04-25 19:43 | 52.59003 | -1.91678 | 3317 ft | 185 kts | 105° |
| 2026-04-25 19:44 | 52.58521 | -1.89758 | 3159 ft | 182 kts | 131° |
| 2026-04-25 19:44 | 52.57535 | -1.88438 | 2980 ft | 186 kts | 142° |
| 2026-04-25 19:44 | 52.56487 | -1.87191 | 2747 ft | 188 kts | 144° |
| 2026-04-25 19:44 | 52.55412 | -1.85971 | 2481 ft | 186 kts | 144° |
| 2026-04-25 19:45 | 52.54354 | -1.84790 | 2225 ft | 181 kts | 145° |
| 2026-04-25 19:45 | 52.53344 | -1.83666 | 2002 ft | 169 kts | 144° |
| 2026-04-25 19:45 | 52.52395 | -1.82611 | 1786 ft | 158 kts | 144° |
| 2026-04-25 19:45 | 52.51487 | -1.81599 | 1558 ft | 158 kts | 144° |
| 2026-04-25 19:46 | 52.50590 | -1.80599 | 1346 ft | 155 kts | 146° |
| 2026-04-25 19:46 | 52.49699 | -1.79608 | 1145 ft | 155 kts | 146° |
| 2026-04-25 19:46 | 52.48805 | -1.78610 | 943 ft | 155 kts | 146° |
| 2026-04-25 19:46 | 52.47916 | -1.77612 | 722 ft | 155 kts | 146° |
| 2026-04-25 19:47 | 52.47027 | -1.76624 | 517 ft | 154 kts | 146° |
| 2026-04-25 19:47 | 52.46143 | -1.75642 | 323 ft | 152 kts | 146° |
| 2026-04-25 19:47 | 52.45379 | -1.74794 | 322 ft | 104 kts | 145° |
| 2026-04-25 19:47 | 52.44977 | -1.74347 | 324 ft | 25 kts | 146° |
| 2026-04-25 19:48 | 52.44949 | -1.74222 | 327 ft | 12 kts | 75° |
| 2026-04-25 19:48 | 52.44970 | -1.74092 | 324 ft | 12 kts | 76° |
| 2026-04-25 19:48 | 52.44993 | -1.73943 | 323 ft | 14 kts | 74° |
| 2026-04-25 19:48 | 52.45043 | -1.73813 | 322 ft | 13 kts | 58° |
| 2026-04-25 19:49 | 52.45009 | -1.73717 | 322 ft | 11 kts | 142° |
| 2026-04-25 19:49 | 52.44969 | -1.73672 | 322 ft | 10 kts | 146° |
| 2026-04-25 19:49 | 52.44899 | -1.73572 | 322 ft | 10 kts | 110° |
| 2026-04-25 19:49 | 52.44918 | -1.73467 | 322 ft | 10 kts | 56° |
| 2026-04-25 19:50 | 52.44982 | -1.73342 | 322 ft | 5 kts | 340° |
| 2026-04-25 19:50 | 52.45006 | -1.73367 | 322 ft | 2 kts | 326° |
| 2026-04-25 19:50 | 52.45013 | -1.73375 | 322 ft | 1 kts | 326° |
| 2026-04-25 19:51 | 52.45014 | -1.73376 | 322 ft | 0 kts | 326° |